sensor_id;sensor_type;location;lat;lon;timestamp;pressure;altitude;pressure_sealevel;temperature;humidity
54172;BME280;40076;52.354;4.970;2023-02-18T00:00:07;102192.66;;;10.80;100.00
54172;BME280;40076;52.354;4.970;2023-02-18T00:02:33;102199.16;;;10.79;100.00
54172;BME280;40076;52.354;4.970;2023-02-18T00:04:58;102204.56;;;10.79;100.00
54172;BME280;40076;52.354;4.970;2023-02-18T00:07:24;102199.97;;;10.79;100.00
54172;BME280;40076;52.354;4.970;2023-02-18T00:09:49;102190.78;;;10.80;100.00
54172;BME280;40076;52.354;4.970;2023-02-18T00:12:14;102191.88;;;10.79;100.00
54172;BME280;40076;52.354;4.970;2023-02-18T00:14:40;102191.88;;;10.79;100.00
54172;BME280;40076;52.354;4.970;2023-02-18T00:17:05;102201.59;;;10.80;100.00
54172;BME280;40076;52.354;4.970;2023-02-18T00:19:30;102194.56;;;10.79;100.00
54172;BME280;40076;52.354;4.970;2023-02-18T00:21:55;102191.88;;;10.79;100.00
54172;BME280;40076;52.354;4.970;2023-02-18T00:24:21;102185.66;;;10.79;100.00
54172;BME280;40076;52.354;4.970;2023-02-18T00:26:49;102180.03;;;10.75;100.00
54172;BME280;40076;52.354;4.970;2023-02-18T00:29:15;102191.63;;;10.76;100.00
54172;BME280;40076;52.354;4.970;2023-02-18T00:31:40;102177.31;;;10.75;100.00
54172;BME280;40076;52.354;4.970;2023-02-18T00:34:06;102180.81;;;10.76;100.00
54172;BME280;40076;52.354;4.970;2023-02-18T00:36:31;102175.41;;;10.76;100.00
54172;BME280;40076;52.354;4.970;2023-02-18T00:38:59;102178.41;;;10.74;100.00
54172;BME280;40076;52.354;4.970;2023-02-18T00:41:26;102167.59;;;10.74;100.00
54172;BME280;40076;52.354;4.970;2023-02-18T00:43:52;102176.78;;;10.73;100.00
54172;BME280;40076;52.354;4.970;2023-02-18T00:46:18;102162.75;;;10.71;100.00
54172;BME280;40076;52.354;4.970;2023-02-18T00:48:43;102168.16;;;10.71;100.00
54172;BME280;40076;52.354;4.970;2023-02-18T00:51:10;102160.31;;;10.70;100.00
54172;BME280;40076;52.354;4.970;2023-02-18T00:53:35;102159.53;;;10.69;100.00
54172;BME280;40076;52.354;4.970;2023-02-18T00:56:01;102160.31;;;10.70;100.00
54172;BME280;40076;52.354;4.970;2023-02-18T00:58:27;102164.66;;;10.71;100.00
54172;BME280;40076;52.354;4.970;2023-02-18T01:00:53;102164.94;;;10.69;100.00
54172;BME280;40076;52.354;4.970;2023-02-18T01:03:19;102159.53;;;10.69;100.00
54172;BME280;40076;52.354;4.970;2023-02-18T01:05:44;102166.00;;;10.68;100.00
54172;BME280;40076;52.354;4.970;2023-02-18T01:08:10;102156.81;;;10.69;100.00
54172;BME280;40076;52.354;4.970;2023-02-18T01:10:40;102156.59;;;10.66;100.00
54172;BME280;40076;52.354;4.970;2023-02-18T01:13:07;102160.09;;;10.66;100.00
54172;BME280;40076;52.354;4.970;2023-02-18T01:15:32;102153.09;;;10.65;100.00
54172;BME280;40076;52.354;4.970;2023-02-18T01:17:57;102151.19;;;10.66;100.00
54172;BME280;40076;52.354;4.970;2023-02-18T01:20:23;102147.69;;;10.65;100.00
54172;BME280;40076;52.354;4.970;2023-02-18T01:22:48;102142.56;;;10.64;100.00
54172;BME280;40076;52.354;4.970;2023-02-18T01:25:14;102129.31;;;10.62;100.00
54172;BME280;40076;52.354;4.970;2023-02-18T01:27:40;102134.22;;;10.60;100.00
54172;BME280;40076;52.354;4.970;2023-02-18T01:30:06;102118.78;;;10.61;100.00
54172;BME280;40076;52.354;4.970;2023-02-18T01:32:32;102117.69;;;10.62;100.00
54172;BME280;40076;52.354;4.970;2023-02-18T01:35:04;102123.63;;;10.64;100.00
54172;BME280;40076;52.354;4.970;2023-02-18T01:37:29;102120.13;;;10.63;100.00
54172;BME280;40076;52.354;4.970;2023-02-18T01:39:55;102124.44;;;10.64;100.00
54172;BME280;40076;52.354;4.970;2023-02-18T01:42:24;102126.06;;;10.65;100.00
54172;BME280;40076;52.354;4.970;2023-02-18T01:44:50;102114.97;;;10.67;100.00
54172;BME280;40076;52.354;4.970;2023-02-18T01:47:16;102112.25;;;10.67;100.00
54172;BME280;40076;52.354;4.970;2023-02-18T01:49:42;102109.56;;;10.67;100.00
54172;BME280;40076;52.354;4.970;2023-02-18T01:52:36;102113.06;;;10.67;100.00
54172;BME280;40076;52.354;4.970;2023-02-18T01:55:01;102090.13;;;10.65;100.00
54172;BME280;40076;52.354;4.970;2023-02-18T01:57:32;102087.41;;;10.65;100.00
54172;BME280;40076;52.354;4.970;2023-02-18T02:00:05;102084.72;;;10.65;100.00
54172;BME280;40076;52.354;4.970;2023-02-18T02:02:34;102083.34;;;10.67;100.00
54172;BME280;40076;52.354;4.970;2023-02-18T02:05:01;102080.31;;;10.69;100.00
54172;BME280;40076;52.354;4.970;2023-02-18T02:07:27;102074.91;;;10.69;100.00
54172;BME280;40076;52.354;4.970;2023-02-18T02:09:55;102072.72;;;10.71;100.00
54172;BME280;40076;52.354;4.970;2023-02-18T02:15:33;102051.63;;;10.73;100.00
54172;BME280;40076;52.354;4.970;2023-02-18T02:26:14;102014.59;;;10.73;100.00
54172;BME280;40076;52.354;4.970;2023-02-18T02:39:25;101977.59;;;10.69;100.00
54172;BME280;40076;52.354;4.970;2023-02-18T02:42:07;101973.31;;;10.68;100.00
54172;BME280;40076;52.354;4.970;2023-02-18T02:44:41;101973.59;;;10.66;100.00
54172;BME280;40076;52.354;4.970;2023-02-18T02:47:18;101966.56;;;10.65;100.00
54172;BME280;40076;52.354;4.970;2023-02-18T02:49:52;101978.47;;;10.64;100.00
54172;BME280;40076;52.354;4.970;2023-02-18T02:52:28;101971.47;;;10.63;100.00
54172;BME280;40076;52.354;4.970;2023-02-18T02:54:54;101971.97;;;10.65;100.00
54172;BME280;40076;52.354;4.970;2023-02-18T02:59:48;101963.88;;;10.65;100.00
54172;BME280;40076;52.354;4.970;2023-02-18T03:11:04;101952.47;;;10.68;100.00
54172;BME280;40076;52.354;4.970;2023-02-18T03:19:18;101933.47;;;10.73;100.00
54172;BME280;40076;52.354;4.970;2023-02-18T03:24:27;101910.97;;;10.78;100.00
54172;BME280;40076;52.354;4.970;2023-02-18T03:26:58;101901.75;;;10.79;100.00
54172;BME280;40076;52.354;4.970;2023-02-18T03:29:25;101897.69;;;10.81;100.00
54172;BME280;40076;52.354;4.970;2023-02-18T03:31:55;101889.28;;;10.83;100.00
54172;BME280;40076;52.354;4.970;2023-02-18T03:34:30;101895.19;;;10.85;100.00
54172;BME280;40076;52.354;4.970;2023-02-18T03:36:58;101899.19;;;10.88;100.00
54172;BME280;40076;52.354;4.970;2023-02-18T03:39:29;101891.59;;;10.90;100.00
54172;BME280;40076;52.354;4.970;2023-02-18T03:41:55;101883.16;;;10.91;100.00
54172;BME280;40076;52.354;4.970;2023-02-18T03:44:20;101874.47;;;10.94;100.00
54172;BME280;40076;52.354;4.970;2023-02-18T03:46:45;101872.28;;;10.96;100.00
54172;BME280;40076;52.354;4.970;2023-02-18T03:49:12;101866.88;;;10.96;100.00
54172;BME280;40076;52.354;4.970;2023-02-18T03:51:38;101868.50;;;10.97;100.00
54172;BME280;40076;52.354;4.970;2023-02-18T03:54:04;101858.47;;;10.98;100.00
54172;BME280;40076;52.354;4.970;2023-02-18T03:56:29;101851.94;;;10.99;100.00
54172;BME280;40076;52.354;4.970;2023-02-18T03:58:54;101855.47;;;10.99;100.00
54172;BME280;40076;52.354;4.970;2023-02-18T04:01:20;101854.38;;;11.00;100.00
54172;BME280;40076;52.354;4.970;2023-02-18T04:03:45;101854.38;;;11.00;100.00
54172;BME280;40076;52.354;4.970;2023-02-18T04:06:11;101850.06;;;10.99;100.00
54172;BME280;40076;52.354;4.970;2023-02-18T04:08:36;101843.06;;;10.98;100.00
54172;BME280;40076;52.354;4.970;2023-02-18T04:11:02;101835.72;;;10.99;100.00
54172;BME280;40076;52.354;4.970;2023-02-18T04:13:29;101850.84;;;11.00;100.00
54172;BME280;40076;52.354;4.970;2023-02-18T04:15:55;101849.25;;;10.99;100.00
54172;BME280;40076;52.354;4.970;2023-02-18T04:18:21;101839.22;;;10.99;100.00
54172;BME280;40076;52.354;4.970;2023-02-18T04:20:46;101836.22;;;11.01;100.00
54172;BME280;40076;52.354;4.970;2023-02-18T04:23:11;101834.63;;;11.00;100.00
54172;BME280;40076;52.354;4.970;2023-02-18T04:25:37;101837.66;;;10.98;100.00
54172;BME280;40076;52.354;4.970;2023-02-18T04:28:03;101834.16;;;10.98;100.00
54172;BME280;40076;52.354;4.970;2023-02-18T04:30:28;101815.22;;;10.98;100.00
54172;BME280;40076;52.354;4.970;2023-02-18T04:32:54;101816.59;;;10.95;100.00
54172;BME280;40076;52.354;4.970;2023-02-18T04:35:19;101818.22;;;10.96;100.00
54172;BME280;40076;52.354;4.970;2023-02-18T04:37:44;101812.78;;;10.96;100.00
54172;BME280;40076;52.354;4.970;2023-02-18T04:40:10;101813.09;;;10.95;100.00
54172;BME280;40076;52.354;4.970;2023-02-18T04:42:36;101794.66;;;10.97;100.00
54172;BME280;40076;52.354;4.970;2023-02-18T04:45:01;101803.59;;;10.97;100.00
54172;BME280;40076;52.354;4.970;2023-02-18T04:47:27;101804.41;;;10.98;100.00
54172;BME280;40076;52.354;4.970;2023-02-18T04:49:52;101806.28;;;10.97;100.00
54172;BME280;40076;52.354;4.970;2023-02-18T04:52:18;101797.09;;;10.98;100.00
54172;BME280;40076;52.354;4.970;2023-02-18T04:54:43;101795.97;;;10.99;100.00
54172;BME280;40076;52.354;4.970;2023-02-18T04:57:09;101794.38;;;10.98;100.00
54172;BME280;40076;52.354;4.970;2023-02-18T04:59:34;101790.56;;;10.99;100.00
54172;BME280;40076;52.354;4.970;2023-02-18T05:01:59;101792.16;;;11.00;100.00
54172;BME280;40076;52.354;4.970;2023-02-18T05:04:25;101791.34;;;11.00;100.00
54172;BME280;40076;52.354;4.970;2023-02-18T05:06:50;101787.56;;;11.01;100.00
54172;BME280;40076;52.354;4.970;2023-02-18T05:09:15;101785.66;;;11.01;100.00
54172;BME280;40076;52.354;4.970;2023-02-18T05:11:41;101777.25;;;11.03;100.00
54172;BME280;40076;52.354;4.970;2023-02-18T05:14:07;101769.44;;;11.01;100.00
54172;BME280;40076;52.354;4.970;2023-02-18T05:16:32;101787.56;;;11.01;100.00
54172;BME280;40076;52.354;4.970;2023-02-18T05:18:57;101782.66;;;11.03;100.00
54172;BME280;40076;52.354;4.970;2023-02-18T05:21:23;101766.13;;;11.04;100.00
54172;BME280;40076;52.354;4.970;2023-02-18T05:23:48;101755.31;;;11.04;100.00
54172;BME280;40076;52.354;4.970;2023-02-18T05:26:13;101763.13;;;11.06;100.00
54172;BME280;40076;52.354;4.970;2023-02-18T05:28:40;101754.22;;;11.05;100.00
54172;BME280;40076;52.354;4.970;2023-02-18T05:31:05;101765.03;;;11.05;100.00
54172;BME280;40076;52.354;4.970;2023-02-18T05:33:31;101755.03;;;11.06;100.00
54172;BME280;40076;52.354;4.970;2023-02-18T05:35:56;101760.44;;;11.06;100.00
54172;BME280;40076;52.354;4.970;2023-02-18T05:38:21;101771.25;;;11.06;100.00
54172;BME280;40076;52.354;4.970;2023-02-18T05:40:47;101763.91;;;11.06;100.00
54172;BME280;40076;52.354;4.970;2023-02-18T05:43:12;101760.44;;;11.06;100.00
54172;BME280;40076;52.354;4.970;2023-02-18T05:45:38;101746.09;;;11.05;100.00
54172;BME280;40076;52.354;4.970;2023-02-18T05:48:04;101734.97;;;11.07;100.00
54172;BME280;40076;52.354;4.970;2023-02-18T05:50:29;101724.47;;;11.05;100.00
54172;BME280;40076;52.354;4.970;2023-02-18T05:52:54;101733.38;;;11.06;100.00
54172;BME280;40076;52.354;4.970;2023-02-18T05:55:20;101740.38;;;11.07;100.00
54172;BME280;40076;52.354;4.970;2023-02-18T05:57:45;101749.28;;;11.07;100.00
54172;BME280;40076;52.354;4.970;2023-02-18T06:00:11;101749.28;;;11.07;100.00
54172;BME280;40076;52.354;4.970;2023-02-18T06:02:37;101741.50;;;11.06;100.00
54172;BME280;40076;52.354;4.970;2023-02-18T06:05:03;101730.97;;;11.04;100.00
54172;BME280;40076;52.354;4.970;2023-02-18T06:07:29;101742.59;;;11.05;100.00
54172;BME280;40076;52.354;4.970;2023-02-18T06:09:55;101745.31;;;11.05;100.00
54172;BME280;40076;52.354;4.970;2023-02-18T06:12:20;101730.19;;;11.04;100.00
54172;BME280;40076;52.354;4.970;2023-02-18T06:14:46;101729.88;;;11.05;100.00
54172;BME280;40076;52.354;4.970;2023-02-18T06:17:12;101717.47;;;11.04;100.00
54172;BME280;40076;52.354;4.970;2023-02-18T06:19:37;101728.28;;;11.04;100.00
54172;BME280;40076;52.354;4.970;2023-02-18T06:22:03;101722.06;;;11.04;100.00
54172;BME280;40076;52.354;4.970;2023-02-18T06:24:29;101717.47;;;11.04;100.00
54172;BME280;40076;52.354;4.970;2023-02-18T06:26:54;101735.88;;;11.02;100.00
54172;BME280;40076;52.354;4.970;2023-02-18T06:29:20;101736.69;;;11.03;100.00
54172;BME280;40076;52.354;4.970;2023-02-18T06:31:45;101725.88;;;11.03;100.00
54172;BME280;40076;52.354;4.970;2023-02-18T06:34:10;101722.34;;;11.02;100.00
54172;BME280;40076;52.354;4.970;2023-02-18T06:36:38;101728.88;;;11.01;100.00
54172;BME280;40076;52.354;4.970;2023-02-18T06:39:05;101731.56;;;11.01;100.00
54172;BME280;40076;52.354;4.970;2023-02-18T06:41:30;101722.66;;;11.01;100.00
54172;BME280;40076;52.354;4.970;2023-02-18T06:43:55;101731.06;;;10.99;100.00
54172;BME280;40076;52.354;4.970;2023-02-18T06:46:21;101725.66;;;10.99;100.00
54172;BME280;40076;52.354;4.970;2023-02-18T06:48:47;101724.84;;;10.99;100.00
54172;BME280;40076;52.354;4.970;2023-02-18T06:51:12;101724.56;;;11.00;100.00
54172;BME280;40076;52.354;4.970;2023-02-18T06:53:38;101717.25;;;11.01;100.00
54172;BME280;40076;52.354;4.970;2023-02-18T06:56:04;101711.84;;;11.01;100.00
54172;BME280;40076;52.354;4.970;2023-02-18T06:58:29;101712.94;;;11.00;100.00
54172;BME280;40076;52.354;4.970;2023-02-18T07:00:55;101700.50;;;10.99;100.00
54172;BME280;40076;52.354;4.970;2023-02-18T07:03:20;101704.00;;;10.99;100.00
54172;BME280;40076;52.354;4.970;2023-02-18T07:05:46;101701.94;;;10.96;100.00
54172;BME280;40076;52.354;4.970;2023-02-18T07:08:11;101715.75;;;10.95;100.00
54172;BME280;40076;52.354;4.970;2023-02-18T07:10:37;101701.13;;;10.96;100.00
54172;BME280;40076;52.354;4.970;2023-02-18T07:13:03;101703.81;;;10.96;100.00
54172;BME280;40076;52.354;4.970;2023-02-18T07:15:29;101706.03;;;10.94;100.00
54172;BME280;40076;52.354;4.970;2023-02-18T07:17:54;101709.03;;;10.92;100.00
54172;BME280;40076;52.354;4.970;2023-02-18T07:20:22;101703.44;;;10.89;100.00
54172;BME280;40076;52.354;4.970;2023-02-18T07:22:48;101695.31;;;10.89;100.00
54172;BME280;40076;52.354;4.970;2023-02-18T07:25:14;101689.69;;;10.85;100.00
54172;BME280;40076;52.354;4.970;2023-02-18T07:27:42;101699.41;;;10.86;100.00
54172;BME280;40076;52.354;4.970;2023-02-18T07:30:29;101708.91;;;10.83;100.00
54172;BME280;40076;52.354;4.970;2023-02-18T07:32:54;101712.22;;;10.80;100.00
54172;BME280;40076;52.354;4.970;2023-02-18T07:35:22;101717.63;;;10.80;100.00
54172;BME280;40076;52.354;4.970;2023-02-18T07:37:48;101712.81;;;10.77;100.00
54172;BME280;40076;52.354;4.970;2023-02-18T07:40:17;101715.50;;;10.77;100.00
54172;BME280;40076;52.354;4.970;2023-02-18T07:42:45;101726.63;;;10.76;100.00
54172;BME280;40076;52.354;4.970;2023-02-18T07:45:11;101714.22;;;10.75;100.00
54172;BME280;40076;52.354;4.970;2023-02-18T07:47:39;101724.53;;;10.73;100.00
54172;BME280;40076;52.354;4.970;2023-02-18T07:50:07;101721.81;;;10.73;100.00
54172;BME280;40076;52.354;4.970;2023-02-18T07:52:33;101720.72;;;10.74;100.00
54172;BME280;40076;52.354;4.970;2023-02-18T07:55:01;101729.41;;;10.71;100.00
54172;BME280;40076;52.354;4.970;2023-02-18T07:57:26;101728.09;;;10.68;100.00
54172;BME280;40076;52.354;4.970;2023-02-18T07:59:54;101743.56;;;10.68;100.00
54172;BME280;40076;52.354;4.970;2023-02-18T08:02:21;101731.13;;;10.67;100.00
54172;BME280;40076;52.354;4.970;2023-02-18T08:04:47;101726.81;;;10.66;100.00
54172;BME280;40076;52.354;4.970;2023-02-18T08:07:17;101736.59;;;10.62;100.00
54172;BME280;40076;52.354;4.970;2023-02-18T08:09:44;101732.00;;;10.62;100.00
54172;BME280;40076;52.354;4.970;2023-02-18T08:12:09;101735.31;;;10.59;100.00
54172;BME280;40076;52.354;4.970;2023-02-18T08:14:36;101734.81;;;10.57;100.00
54172;BME280;40076;52.354;4.970;2023-02-18T08:17:02;101735.09;;;10.56;100.00
54172;BME280;40076;52.354;4.970;2023-02-18T08:19:53;101734.56;;;10.54;100.00
54172;BME280;40076;52.354;4.970;2023-02-18T08:22:18;101728.69;;;10.52;100.00
54172;BME280;40076;52.354;4.970;2023-02-18T08:24:43;101724.69;;;10.49;100.00
54172;BME280;40076;52.354;4.970;2023-02-18T08:27:08;101728.19;;;10.50;100.00
54172;BME280;40076;52.354;4.970;2023-02-18T08:29:34;101719.28;;;10.49;100.00
54172;BME280;40076;52.354;4.970;2023-02-18T08:31:59;101721.97;;;10.49;100.00
54172;BME280;40076;52.354;4.970;2023-02-18T08:34:25;101738.97;;;10.50;100.00
54172;BME280;40076;52.354;4.970;2023-02-18T08:36:50;101728.97;;;10.50;100.00
54172;BME280;40076;52.354;4.970;2023-02-18T08:39:15;101729.50;;;10.52;100.00
54172;BME280;40076;52.354;4.970;2023-02-18T08:41:41;101725.66;;;10.53;100.00
54172;BME280;40076;52.354;4.970;2023-02-18T08:44:06;101721.88;;;10.54;100.00
54172;BME280;40076;52.354;4.970;2023-02-18T08:46:31;101731.59;;;10.55;100.00
54172;BME280;40076;52.354;4.970;2023-02-18T08:48:57;101743.19;;;10.56;100.00
54172;BME280;40076;52.354;4.970;2023-02-18T08:51:22;101730.50;;;10.56;100.00
54172;BME280;40076;52.354;4.970;2023-02-18T08:53:48;101733.19;;;10.56;100.00
54172;BME280;40076;52.354;4.970;2023-02-18T08:56:14;101724.81;;;10.58;100.00
54172;BME280;40076;52.354;4.970;2023-02-18T08:58:41;101739.91;;;10.59;100.00
54172;BME280;40076;52.354;4.970;2023-02-18T09:01:08;101746.94;;;10.60;100.00
54172;BME280;40076;52.354;4.970;2023-02-18T09:03:34;101742.34;;;10.60;100.00
54172;BME280;40076;52.354;4.970;2023-02-18T09:06:00;101725.78;;;10.62;100.00
54172;BME280;40076;52.354;4.970;2023-02-18T09:08:29;101738.22;;;10.63;100.00
54172;BME280;40076;52.354;4.970;2023-02-18T09:10:59;101753.34;;;10.64;100.00
54172;BME280;40076;52.354;4.970;2023-02-18T09:13:25;101756.25;;;10.67;100.00
54172;BME280;40076;52.354;4.970;2023-02-18T09:16:04;101747.03;;;10.68;100.00
54172;BME280;40076;52.354;4.970;2023-02-18T09:18:31;101758.97;;;10.67;100.00
54172;BME280;40076;52.354;4.970;2023-02-18T09:20:58;101758.66;;;10.69;100.00
54172;BME280;40076;52.354;4.970;2023-02-18T09:23:25;101763.25;;;10.68;100.00
54172;BME280;40076;52.354;4.970;2023-02-18T09:25:51;101765.94;;;10.68;100.00
54172;BME280;40076;52.354;4.970;2023-02-18T09:28:16;101776.47;;;10.70;100.00
54172;BME280;40076;52.354;4.970;2023-02-18T09:30:42;101766.47;;;10.70;100.00
54172;BME280;40076;52.354;4.970;2023-02-18T09:33:07;101771.88;;;10.70;100.00
54172;BME280;40076;52.354;4.970;2023-02-18T09:35:32;101768.38;;;10.70;100.00
54172;BME280;40076;52.354;4.970;2023-02-18T09:37:58;101769.97;;;10.71;100.00
54172;BME280;40076;52.354;4.970;2023-02-18T09:40:26;101769.16;;;10.70;100.00
54172;BME280;40076;52.354;4.970;2023-02-18T09:42:56;101790.50;;;10.72;100.00
54172;BME280;40076;52.354;4.970;2023-02-18T09:45:22;101785.91;;;10.72;100.00
54172;BME280;40076;52.354;4.970;2023-02-18T09:47:49;101789.13;;;10.74;100.00
54172;BME280;40076;52.354;4.970;2023-02-18T09:50:26;101779.41;;;10.73;100.00
54172;BME280;40076;52.354;4.970;2023-02-18T09:52:53;101792.31;;;10.76;100.00
54172;BME280;40076;52.354;4.970;2023-02-18T09:55:21;101785.81;;;10.77;100.00
54172;BME280;40076;52.354;4.970;2023-02-18T09:58:33;101782.00;;;10.78;100.00
54172;BME280;40076;52.354;4.970;2023-02-18T10:00:40;101782.81;;;10.79;100.00
54172;BME280;40076;52.354;4.970;2023-02-18T10:03:11;101787.94;;;10.80;100.00
54172;BME280;40076;52.354;4.970;2023-02-18T10:05:41;101807.38;;;10.82;100.00
54172;BME280;40076;52.354;4.970;2023-02-18T10:08:20;101789.44;;;10.87;100.00
54172;BME280;40076;52.354;4.970;2023-02-18T10:10:47;101798.63;;;10.86;100.00
54172;BME280;40076;52.354;4.970;2023-02-18T10:13:15;101799.16;;;10.88;100.00
54172;BME280;40076;52.354;4.970;2023-02-18T10:15:42;101787.75;;;10.91;100.00
54172;BME280;40076;52.354;4.970;2023-02-18T10:21:15;101795.78;;;10.96;100.00
54172;BME280;40076;52.354;4.970;2023-02-18T10:26:20;101795.97;;;10.99;100.00
54172;BME280;40076;52.354;4.970;2023-02-18T10:28:46;101806.19;;;11.02;100.00
54172;BME280;40076;52.354;4.970;2023-02-18T10:31:17;101806.72;;;11.04;100.00
54172;BME280;40076;52.354;4.970;2023-02-18T10:33:52;101794.97;;;11.09;100.00
54172;BME280;40076;52.354;4.970;2023-02-18T10:36:29;101800.09;;;11.10;100.00
54172;BME280;40076;52.354;4.970;2023-02-18T10:39:12;101812.81;;;11.10;100.00
54172;BME280;40076;52.354;4.970;2023-02-18T10:44:34;101812.22;;;11.13;100.00
54172;BME280;40076;52.354;4.970;2023-02-18T10:52:05;101815.63;;;11.18;100.00
54172;BME280;40076;52.354;4.970;2023-02-18T10:54:51;101820.75;;;11.20;100.00
54172;BME280;40076;52.354;4.970;2023-02-18T10:57:21;101825.06;;;11.21;100.00
54172;BME280;40076;52.354;4.970;2023-02-18T11:02:20;101833.09;;;11.26;100.00
54172;BME280;40076;52.354;4.970;2023-02-18T11:04:45;101827.38;;;11.28;100.00
54172;BME280;40076;52.354;4.970;2023-02-18T11:07:32;101835.69;;;11.31;100.00
54172;BME280;40076;52.354;4.970;2023-02-18T11:12:45;101827.88;;;11.30;100.00
54172;BME280;40076;52.354;4.970;2023-02-18T11:15:19;101835.69;;;11.31;100.00
54172;BME280;40076;52.354;4.970;2023-02-18T11:17:46;101819.75;;;11.30;100.00
54172;BME280;40076;52.354;4.970;2023-02-18T11:22:48;101831.59;;;11.34;100.00
54172;BME280;40076;52.354;4.970;2023-02-18T11:25:22;101837.50;;;11.36;100.00
54172;BME280;40076;52.354;4.970;2023-02-18T11:27:55;101824.47;;;11.38;100.00
54172;BME280;40076;52.354;4.970;2023-02-18T11:33:17;101826.28;;;11.42;100.00
54172;BME280;40076;52.354;4.970;2023-02-18T11:35:55;101835.69;;;11.45;100.00
54172;BME280;40076;52.354;4.970;2023-02-18T11:38:28;101816.16;;;11.48;100.00
54172;BME280;40076;52.354;4.970;2023-02-18T11:41:19;101826.69;;;11.49;100.00
54172;BME280;40076;52.354;4.970;2023-02-18T11:43:51;101825.47;;;11.55;100.00
54172;BME280;40076;52.354;4.970;2023-02-18T11:46:23;101826.00;;;11.57;100.00
54172;BME280;40076;52.354;4.970;2023-02-18T11:48:50;101830.78;;;11.60;100.00
54172;BME280;40076;52.354;4.970;2023-02-18T11:51:33;101828.28;;;11.64;100.00
54172;BME280;40076;52.354;4.970;2023-02-18T11:54:21;101844.25;;;11.66;100.00
54172;BME280;40076;52.354;4.970;2023-02-18T11:57:05;101836.13;;;11.66;100.00
54172;BME280;40076;52.354;4.970;2023-02-18T11:59:36;101820.34;;;11.68;100.00
54172;BME280;40076;52.354;4.970;2023-02-18T12:04:42;101814.84;;;11.73;100.00
54172;BME280;40076;52.354;4.970;2023-02-18T12:07:16;101828.59;;;11.76;100.00
54172;BME280;40076;52.354;4.970;2023-02-18T12:09:58;101822.31;;;11.81;100.00
54172;BME280;40076;52.354;4.970;2023-02-18T12:12:30;101829.81;;;11.84;100.00
54172;BME280;40076;52.354;4.970;2023-02-18T12:14:58;101810.56;;;11.85;100.00
54172;BME280;40076;52.354;4.970;2023-02-18T12:18:02;101820.28;;;11.86;100.00
54172;BME280;40076;52.354;4.970;2023-02-18T12:26:24;101822.19;;;11.86;100.00
54172;BME280;40076;52.354;4.970;2023-02-18T12:40:05;101815.47;;;11.97;100.00
54172;BME280;40076;52.354;4.970;2023-02-18T12:43:14;101815.63;;;12.01;100.00
54172;BME280;40076;52.354;4.970;2023-02-18T12:48:24;101830.78;;;12.02;100.00
54172;BME280;40076;52.354;4.970;2023-02-18T13:13:00;101833.50;;;12.02;100.00
54172;BME280;40076;52.354;4.970;2023-02-18T13:18:20;101847.84;;;12.02;100.00
54172;BME280;40076;52.354;4.970;2023-02-18T13:20:53;101840.81;;;12.01;100.00
54172;BME280;40076;52.354;4.970;2023-02-18T13:23:45;101834.31;;;12.02;100.00
54172;BME280;40076;52.354;4.970;2023-02-18T13:26:15;101839.13;;;12.05;100.00
54172;BME280;40076;52.354;4.970;2023-02-18T13:31:45;101835.78;;;12.08;100.00
54172;BME280;40076;52.354;4.970;2023-02-18T13:34:24;101831.19;;;12.09;100.00
54172;BME280;40076;52.354;4.970;2023-02-18T13:37:18;101835.50;;;12.10;100.00
54172;BME280;40076;52.354;4.970;2023-02-18T13:39:54;101832.19;;;12.13;100.00
54172;BME280;40076;52.354;4.970;2023-02-18T13:42:35;101829.16;;;12.14;100.00
54172;BME280;40076;52.354;4.970;2023-02-18T13:45:27;101826.66;;;12.18;100.00
54172;BME280;40076;52.354;4.970;2023-02-18T13:47:52;101836.56;;;12.22;100.00
54172;BME280;40076;52.354;4.970;2023-02-18T13:52:46;101838.16;;;12.23;100.00
54172;BME280;40076;52.354;4.970;2023-02-18T13:55:17;101845.50;;;12.23;100.00
54172;BME280;40076;52.354;4.970;2023-02-18T13:57:46;101842.19;;;12.26;100.00
54172;BME280;40076;52.354;4.970;2023-02-18T14:00:24;101835.44;;;12.23;100.00
54172;BME280;40076;52.354;4.970;2023-02-18T14:03:02;101843.28;;;12.25;100.00
54172;BME280;40076;52.354;4.970;2023-02-18T14:05:42;101843.06;;;12.21;100.00
54172;BME280;40076;52.354;4.970;2023-02-18T14:08:32;101846.13;;;12.20;100.00
54172;BME280;40076;52.354;4.970;2023-02-18T14:16:25;101849.72;;;12.15;100.00
54172;BME280;40076;52.354;4.970;2023-02-18T14:18:55;101855.94;;;12.16;100.00
54172;BME280;40076;52.354;4.970;2023-02-18T14:21:34;101852.44;;;12.15;100.00
54172;BME280;40076;52.354;4.970;2023-02-18T14:24:02;101856.75;;;12.16;100.00
54172;BME280;40076;52.354;4.970;2023-02-18T14:26:29;101862.97;;;12.17;100.00
54172;BME280;40076;52.354;4.970;2023-02-18T14:29:00;101860.56;;;12.15;100.00
54172;BME280;40076;52.354;4.970;2023-02-18T14:31:50;101860.38;;;12.12;100.00
54172;BME280;40076;52.354;4.970;2023-02-18T14:42:31;101860.25;;;12.17;100.00
54172;BME280;40076;52.354;4.970;2023-02-18T14:50:32;101876.50;;;12.17;100.00
54172;BME280;40076;52.354;4.970;2023-02-18T14:53:03;101863.78;;;12.17;100.00
54172;BME280;40076;52.354;4.970;2023-02-18T14:55:33;101870.00;;;12.18;100.00
54172;BME280;40076;52.354;4.970;2023-02-18T14:58:05;101866.78;;;12.16;100.00
54172;BME280;40076;52.354;4.970;2023-02-18T15:00:35;101873.81;;;12.17;100.00
54172;BME280;40076;52.354;4.970;2023-02-18T15:03:12;101879.22;;;12.17;100.00
54172;BME280;40076;52.354;4.970;2023-02-18T15:05:38;101881.13;;;12.16;100.00